ポンペイ島 の空港の天気 - METARとTAF

ポンペイ国際空港 ( PTPN / PNI ) - ミクロネシア連邦 ポンペイ島
飛行場実況気象(Metar)
観測時間03/22 14:50 +11 (03/22 03:50 UTC)
風向・風速東北東 4m/s
視程10km以上
天気現象
全天の4割程度の雲 雲底高度 550m
全天の8割程度の雲 雲底高度 3960m
全天を覆う雲 雲底高度 9140m
気温31℃
湿度70%
気圧1007hPa
METARPTPN 220350Z 06007KT 15SM SCT018 BKN130 OVC300 31/25 A2975 RMK LAST
過去の天気等 Google飛行場航空写真 Wunderground天気予報

過去48時間のMETAR

飛行場予報(TAF)
発表時間: 3/22 16:26 +11 (3/22 05:26 UTC)
予報対象時間: 22日17時 +11 ~ 23日17時 +11
風向・風速東 4m/s
視程10km以上
全天の4割程度の雲 雲底高度 550m
全天の4割程度の雲 雲底高度 3960m
PTPN 220526Z 2206/2306 08007KT P6SM SCT018 SCT130